Tafjord, Norway

6:49 AM CEST on April 28, 2015 (GMT +0200)
Stranda, Engeset Mek | | Change Station
CLOSE
Current Station
Personal Weather Station
Location: MORE OG ROMSDAL, MORE OG ROMSDAL
Elevation: 0 ft
Nearby Weather Stations

Elev 0 ft 62.29 °N, 6.90 °E | Updated 1 minute ago

Partly Cloudy
Partly Cloudy
30.2 °F
Feels Like 30 °F
N
1.0
Wind Variable Wind from South
Gusts 4.0 mph

Today
High -- | Low -- °F
--% Chance of Precip.
Yesterday
High -- | Low -- °F
Precip. -- in
5:26 AM 9:31 PM
Waxing Gibbous, 70% visible
Pressure 29.74 in
Visibility 6.2 miles
Clouds Few 3000 ft
Windchill 30 °F
Dew Point 27 °F
Humidity 87%
Rainfall 0.00 in
Snow Depth Not available.
UV 0 out of 12
Pollen Not available.
Air Quality Not available.
Flu Activity Not available.
METAR ENML 280420Z 04007KT 9999 FEW030 00/M02 Q1007

More Conditions Fewer Conditions

Pressure 29.74 in
Visibility 6.2 miles
Clouds Few 3000 ft
Windchill 30 °F
Dew Point 27 °F
Humidity 87%
Rainfall 0.00 in
Snow Depth Not available.
UV 0 out of 12
Pollen Not available.
Air Quality Not available.
Flu Activity Not available.
METAR ENML 280420Z 04007KT 9999 FEW030 00/M02 Q1007

More Conditions Fewer Conditions

10-Day Weather Forecast

Almanac

Astronomy

Apr. 28, 2015 Rise Set
Actual Time
Civil Twilight
Nautical Twilight
Astronomical Twilight
Moon
Length of Visible Light
Length of Day
Tomorrow will be .
, % of the Moon is Illuminated

Today's Extremes

Country Highs Country Lows

Community

WunderPhotos

Upload Photos

1,817,582 photos uploaded!

WunderBlogs® & News

Nearby

Air Quality

  Air Quality AQ Index Pollutant
Not available.

Snow Depth

Station Depth Elevation

Earthquake Activity

City Distance Mag. Time & Date
Minimum magnitude displayed is 2.5.

Coastal Water Temperatures

Place Temperature

Stations

Nearby Weather Stations

Station Location Temp. Windchill Dew Point Humidity Wind Precip. Elev Updated Type